sensor_id;sensor_type;location;lat;lon;timestamp;P1;durP1;ratioP1;P2;durP2;ratioP2
26820;SDS011;37186;51.394;5.454;2022-08-19T00:01:09;206.88;;;197.35;;
26820;SDS011;37186;51.394;5.454;2022-08-19T00:04:11;202.93;;;193.60;;
26820;SDS011;37186;51.394;5.454;2022-08-19T00:07:13;204.98;;;195.48;;
26820;SDS011;37186;51.394;5.454;2022-08-19T00:10:14;188.57;;;179.95;;
26820;SDS011;37186;51.394;5.454;2022-08-19T00:13:16;193.50;;;184.55;;
26820;SDS011;37186;51.394;5.454;2022-08-19T00:16:16;197.35;;;188.25;;
26820;SDS011;37186;51.394;5.454;2022-08-19T00:19:20;181.50;;;173.18;;
26820;SDS011;37186;51.394;5.454;2022-08-19T00:22:21;200.38;;;191.18;;
26820;SDS011;37186;51.394;5.454;2022-08-19T00:25:22;200.88;;;191.60;;
26820;SDS011;37186;51.394;5.454;2022-08-19T00:28:23;197.50;;;188.48;;
26820;SDS011;37186;51.394;5.454;2022-08-19T00:31:23;201.80;;;192.52;;
26820;SDS011;37186;51.394;5.454;2022-08-19T00:34:25;187.02;;;178.43;;
26820;SDS011;37186;51.394;5.454;2022-08-19T00:37:28;195.20;;;186.13;;
26820;SDS011;37186;51.394;5.454;2022-08-19T00:40:28;203.02;;;193.52;;
26820;SDS011;37186;51.394;5.454;2022-08-19T00:43:30;201.63;;;192.15;;
26820;SDS011;37186;51.394;5.454;2022-08-19T00:46:32;194.32;;;185.23;;
26820;SDS011;37186;51.394;5.454;2022-08-19T00:49:36;200.90;;;191.48;;
26820;SDS011;37186;51.394;5.454;2022-08-19T00:52:42;181.15;;;172.63;;
26820;SDS011;37186;51.394;5.454;2022-08-19T00:55:46;191.68;;;182.68;;
26820;SDS011;37186;51.394;5.454;2022-08-19T00:58:49;187.02;;;178.15;;
26820;SDS011;37186;51.394;5.454;2022-08-19T01:01:50;187.93;;;179.15;;
26820;SDS011;37186;51.394;5.454;2022-08-19T01:04:50;194.77;;;185.55;;
26820;SDS011;37186;51.394;5.454;2022-08-19T01:07:51;186.18;;;177.35;;
26820;SDS011;37186;51.394;5.454;2022-08-19T01:10:53;181.90;;;173.38;;
26820;SDS011;37186;51.394;5.454;2022-08-19T01:13:56;181.10;;;172.50;;
26820;SDS011;37186;51.394;5.454;2022-08-19T01:16:56;176.13;;;167.85;;
26820;SDS011;37186;51.394;5.454;2022-08-19T01:19:59;178.70;;;170.25;;
26820;SDS011;37186;51.394;5.454;2022-08-19T01:23:00;174.90;;;166.63;;
26820;SDS011;37186;51.394;5.454;2022-08-19T01:26:02;177.35;;;168.98;;
26820;SDS011;37186;51.394;5.454;2022-08-19T01:29:03;177.35;;;168.98;;
26820;SDS011;37186;51.394;5.454;2022-08-19T01:32:04;163.05;;;155.35;;
26820;SDS011;37186;51.394;5.454;2022-08-19T01:35:06;162.68;;;154.98;;
26820;SDS011;37186;51.394;5.454;2022-08-19T01:38:08;162.77;;;155.18;;
26820;SDS011;37186;51.394;5.454;2022-08-19T01:41:11;161.30;;;153.70;;
26820;SDS011;37186;51.394;5.454;2022-08-19T01:44:12;161.88;;;154.25;;
26820;SDS011;37186;51.394;5.454;2022-08-19T01:47:12;171.45;;;163.13;;
26820;SDS011;37186;51.394;5.454;2022-08-19T01:50:13;158.07;;;150.32;;
26820;SDS011;37186;51.394;5.454;2022-08-19T01:53:14;157.95;;;150.25;;
26820;SDS011;37186;51.394;5.454;2022-08-19T01:56:15;158.88;;;151.23;;
26820;SDS011;37186;51.394;5.454;2022-08-19T01:59:17;166.75;;;158.55;;
26820;SDS011;37186;51.394;5.454;2022-08-19T02:02:20;162.30;;;154.35;;
26820;SDS011;37186;51.394;5.454;2022-08-19T02:05:20;158.63;;;150.85;;
26820;SDS011;37186;51.394;5.454;2022-08-19T02:08:21;165.02;;;157.02;;
26820;SDS011;37186;51.394;5.454;2022-08-19T02:11:23;170.20;;;161.95;;
26820;SDS011;37186;51.394;5.454;2022-08-19T02:14:26;170.05;;;161.88;;
26820;SDS011;37186;51.394;5.454;2022-08-19T02:17:27;158.13;;;150.65;;
26820;SDS011;37186;51.394;5.454;2022-08-19T02:20:28;163.88;;;156.00;;
26820;SDS011;37186;51.394;5.454;2022-08-19T02:23:29;159.85;;;152.30;;
26820;SDS011;37186;51.394;5.454;2022-08-19T02:26:31;162.15;;;154.52;;
26820;SDS011;37186;51.394;5.454;2022-08-19T02:29:32;160.45;;;152.98;;
26820;SDS011;37186;51.394;5.454;2022-08-19T02:32:33;164.45;;;156.80;;
26820;SDS011;37186;51.394;5.454;2022-08-19T02:35:34;164.98;;;157.18;;
26820;SDS011;37186;51.394;5.454;2022-08-19T02:38:34;153.10;;;145.88;;
26820;SDS011;37186;51.394;5.454;2022-08-19T02:41:35;165.55;;;157.85;;
26820;SDS011;37186;51.394;5.454;2022-08-19T02:44:35;160.38;;;152.98;;
26820;SDS011;37186;51.394;5.454;2022-08-19T02:47:37;149.98;;;143.05;;
26820;SDS011;37186;51.394;5.454;2022-08-19T02:50:38;168.10;;;160.32;;
26820;SDS011;37186;51.394;5.454;2022-08-19T02:53:40;155.35;;;148.05;;
26820;SDS011;37186;51.394;5.454;2022-08-19T02:56:41;164.85;;;157.10;;
26820;SDS011;37186;51.394;5.454;2022-08-19T02:59:42;169.68;;;161.90;;
26820;SDS011;37186;51.394;5.454;2022-08-19T03:02:43;152.20;;;145.20;;
26820;SDS011;37186;51.394;5.454;2022-08-19T03:05:44;159.88;;;152.50;;
26820;SDS011;37186;51.394;5.454;2022-08-19T03:08:45;153.65;;;146.52;;
26820;SDS011;37186;51.394;5.454;2022-08-19T03:11:47;153.38;;;146.32;;
26820;SDS011;37186;51.394;5.454;2022-08-19T03:14:47;150.63;;;143.75;;
26820;SDS011;37186;51.394;5.454;2022-08-19T03:17:48;145.10;;;138.48;;
26820;SDS011;37186;51.394;5.454;2022-08-19T03:20:49;152.13;;;145.18;;
26820;SDS011;37186;51.394;5.454;2022-08-19T03:24:00;144.07;;;137.50;;
26820;SDS011;37186;51.394;5.454;2022-08-19T03:27:02;145.63;;;138.93;;
26820;SDS011;37186;51.394;5.454;2022-08-19T03:30:05;137.32;;;131.15;;
26820;SDS011;37186;51.394;5.454;2022-08-19T03:33:07;147.93;;;141.13;;
26820;SDS011;37186;51.394;5.454;2022-08-19T03:36:10;153.98;;;146.90;;
26820;SDS011;37186;51.394;5.454;2022-08-19T03:39:10;154.57;;;147.45;;
26820;SDS011;37186;51.394;5.454;2022-08-19T03:42:11;156.40;;;149.30;;
26820;SDS011;37186;51.394;5.454;2022-08-19T03:45:12;158.90;;;151.57;;
26820;SDS011;37186;51.394;5.454;2022-08-19T03:48:12;162.50;;;155.07;;
26820;SDS011;37186;51.394;5.454;2022-08-19T03:51:20;142.00;;;135.52;;
26820;SDS011;37186;51.394;5.454;2022-08-19T03:54:23;157.52;;;150.25;;
26820;SDS011;37186;51.394;5.454;2022-08-19T03:57:24;162.10;;;154.65;;
26820;SDS011;37186;51.394;5.454;2022-08-19T04:00:25;158.02;;;150.82;;
26820;SDS011;37186;51.394;5.454;2022-08-19T04:03:25;152.77;;;145.65;;
26820;SDS011;37186;51.394;5.454;2022-08-19T04:06:30;157.45;;;150.20;;
26820;SDS011;37186;51.394;5.454;2022-08-19T04:09:33;159.13;;;151.77;;
26820;SDS011;37186;51.394;5.454;2022-08-19T04:12:36;163.88;;;156.35;;
26820;SDS011;37186;51.394;5.454;2022-08-19T04:15:43;157.15;;;149.93;;
26820;SDS011;37186;51.394;5.454;2022-08-19T04:18:46;158.57;;;151.32;;
26820;SDS011;37186;51.394;5.454;2022-08-19T04:21:49;148.90;;;142.07;;
26820;SDS011;37186;51.394;5.454;2022-08-19T04:24:51;153.45;;;146.48;;
26820;SDS011;37186;51.394;5.454;2022-08-19T04:27:52;157.05;;;149.82;;
26820;SDS011;37186;51.394;5.454;2022-08-19T04:30:53;157.73;;;150.57;;
26820;SDS011;37186;51.394;5.454;2022-08-19T04:33:58;153.55;;;146.52;;
26820;SDS011;37186;51.394;5.454;2022-08-19T04:37:00;154.35;;;147.27;;
26820;SDS011;37186;51.394;5.454;2022-08-19T04:40:00;148.48;;;141.70;;
26820;SDS011;37186;51.394;5.454;2022-08-19T04:43:20;149.90;;;143.07;;
26820;SDS011;37186;51.394;5.454;2022-08-19T04:46:20;151.68;;;144.73;;
26820;SDS011;37186;51.394;5.454;2022-08-19T04:49:21;145.73;;;138.98;;
26820;SDS011;37186;51.394;5.454;2022-08-19T04:52:22;148.45;;;141.57;;
26820;SDS011;37186;51.394;5.454;2022-08-19T04:55:23;152.25;;;145.25;;
26820;SDS011;37186;51.394;5.454;2022-08-19T04:58:26;146.45;;;139.52;;
26820;SDS011;37186;51.394;5.454;2022-08-19T05:01:27;153.20;;;145.93;;
26820;SDS011;37186;51.394;5.454;2022-08-19T05:04:30;152.35;;;145.15;;
26820;SDS011;37186;51.394;5.454;2022-08-19T05:07:31;151.20;;;144.05;;
26820;SDS011;37186;51.394;5.454;2022-08-19T05:10:34;160.30;;;152.77;;
26820;SDS011;37186;51.394;5.454;2022-08-19T05:13:36;150.00;;;142.95;;
26820;SDS011;37186;51.394;5.454;2022-08-19T05:16:37;157.23;;;149.73;;
26820;SDS011;37186;51.394;5.454;2022-08-19T05:19:38;152.73;;;145.50;;
26820;SDS011;37186;51.394;5.454;2022-08-19T05:22:57;144.25;;;137.35;;
26820;SDS011;37186;51.394;5.454;2022-08-19T05:25:58;154.30;;;146.93;;
26820;SDS011;37186;51.394;5.454;2022-08-19T05:28:58;163.95;;;155.95;;
26820;SDS011;37186;51.394;5.454;2022-08-19T05:31:59;150.70;;;143.50;;
26820;SDS011;37186;51.394;5.454;2022-08-19T05:35:00;150.98;;;143.68;;
26820;SDS011;37186;51.394;5.454;2022-08-19T05:38:00;161.95;;;153.98;;
26820;SDS011;37186;51.394;5.454;2022-08-19T05:41:11;159.48;;;151.65;;
26820;SDS011;37186;51.394;5.454;2022-08-19T05:44:12;170.25;;;161.82;;
26820;SDS011;37186;51.394;5.454;2022-08-19T05:47:13;172.30;;;163.77;;
26820;SDS011;37186;51.394;5.454;2022-08-19T05:50:15;167.75;;;159.60;;
26820;SDS011;37186;51.394;5.454;2022-08-19T05:53:17;171.63;;;163.15;;
26820;SDS011;37186;51.394;5.454;2022-08-19T05:56:18;170.73;;;162.25;;
26820;SDS011;37186;51.394;5.454;2022-08-19T05:59:20;170.18;;;161.75;;
26820;SDS011;37186;51.394;5.454;2022-08-19T06:02:21;176.85;;;168.00;;
26820;SDS011;37186;51.394;5.454;2022-08-19T06:05:22;180.43;;;171.25;;
26820;SDS011;37186;51.394;5.454;2022-08-19T06:08:22;177.27;;;168.35;;
26820;SDS011;37186;51.394;5.454;2022-08-19T06:11:34;186.23;;;176.88;;
26820;SDS011;37186;51.394;5.454;2022-08-19T06:14:43;180.48;;;171.45;;
26820;SDS011;37186;51.394;5.454;2022-08-19T06:17:43;192.02;;;182.30;;
26820;SDS011;37186;51.394;5.454;2022-08-19T06:20:44;198.70;;;188.80;;
26820;SDS011;37186;51.394;5.454;2022-08-19T06:23:45;195.40;;;185.65;;
26820;SDS011;37186;51.394;5.454;2022-08-19T06:26:47;193.63;;;184.02;;
26820;SDS011;37186;51.394;5.454;2022-08-19T06:29:49;199.02;;;189.10;;
26820;SDS011;37186;51.394;5.454;2022-08-19T06:32:50;202.77;;;192.68;;
26820;SDS011;37186;51.394;5.454;2022-08-19T06:35:50;221.82;;;210.68;;
26820;SDS011;37186;51.394;5.454;2022-08-19T06:38:51;207.43;;;196.98;;
26820;SDS011;37186;51.394;5.454;2022-08-19T06:41:52;209.25;;;198.70;;
26820;SDS011;37186;51.394;5.454;2022-08-19T06:44:56;218.93;;;207.88;;
26820;SDS011;37186;51.394;5.454;2022-08-19T06:47:57;216.38;;;205.40;;
26820;SDS011;37186;51.394;5.454;2022-08-19T06:50:58;222.85;;;211.60;;
26820;SDS011;37186;51.394;5.454;2022-08-19T06:53:58;220.45;;;209.30;;
26820;SDS011;37186;51.394;5.454;2022-08-19T06:57:00;218.82;;;208.02;;
26820;SDS011;37186;51.394;5.454;2022-08-19T07:00:04;218.70;;;207.65;;
26820;SDS011;37186;51.394;5.454;2022-08-19T07:03:08;209.25;;;198.68;;
26820;SDS011;37186;51.394;5.454;2022-08-19T07:06:12;212.27;;;201.85;;
26820;SDS011;37186;51.394;5.454;2022-08-19T07:09:15;203.90;;;193.57;;
26820;SDS011;37186;51.394;5.454;2022-08-19T07:12:17;205.32;;;195.15;;
26820;SDS011;37186;51.394;5.454;2022-08-19T07:15:18;190.82;;;181.35;;
26820;SDS011;37186;51.394;5.454;2022-08-19T07:18:21;189.80;;;180.35;;
26820;SDS011;37186;51.394;5.454;2022-08-19T07:21:24;190.15;;;180.65;;
26820;SDS011;37186;51.394;5.454;2022-08-19T07:24:27;179.88;;;170.82;;
26820;SDS011;37186;51.394;5.454;2022-08-19T07:27:28;176.88;;;167.80;;
26820;SDS011;37186;51.394;5.454;2022-08-19T07:30:29;175.25;;;166.13;;
26820;SDS011;37186;51.394;5.454;2022-08-19T07:33:30;172.32;;;163.57;;
26820;SDS011;37186;51.394;5.454;2022-08-19T07:36:33;168.52;;;159.77;;
26820;SDS011;37186;51.394;5.454;2022-08-19T07:39:35;170.45;;;161.65;;
26820;SDS011;37186;51.394;5.454;2022-08-19T07:42:36;164.38;;;155.82;;
26820;SDS011;37186;51.394;5.454;2022-08-19T07:45:37;166.20;;;157.55;;
26820;SDS011;37186;51.394;5.454;2022-08-19T07:48:38;163.38;;;154.80;;
26820;SDS011;37186;51.394;5.454;2022-08-19T07:51:39;156.73;;;148.45;;
26820;SDS011;37186;51.394;5.454;2022-08-19T07:54:40;164.10;;;155.45;;
26820;SDS011;37186;51.394;5.454;2022-08-19T07:57:40;159.73;;;151.10;;
26820;SDS011;37186;51.394;5.454;2022-08-19T08:00:42;161.38;;;152.65;;
26820;SDS011;37186;51.394;5.454;2022-08-19T08:03:43;162.40;;;153.35;;
26820;SDS011;37186;51.394;5.454;2022-08-19T08:07:03;163.57;;;154.55;;
26820;SDS011;37186;51.394;5.454;2022-08-19T08:10:23;169.10;;;159.65;;
26820;SDS011;37186;51.394;5.454;2022-08-19T08:13:24;168.13;;;158.63;;
26820;SDS011;37186;51.394;5.454;2022-08-19T08:16:26;166.23;;;157.00;;
26820;SDS011;37186;51.394;5.454;2022-08-19T08:19:29;165.90;;;156.48;;
26820;SDS011;37186;51.394;5.454;2022-08-19T08:22:30;160.75;;;151.50;;
26820;SDS011;37186;51.394;5.454;2022-08-19T08:25:49;167.05;;;157.43;;
26820;SDS011;37186;51.394;5.454;2022-08-19T08:28:51;169.38;;;159.77;;
26820;SDS011;37186;51.394;5.454;2022-08-19T08:31:52;173.57;;;163.68;;
26820;SDS011;37186;51.394;5.454;2022-08-19T08:34:53;176.90;;;166.82;;
26820;SDS011;37186;51.394;5.454;2022-08-19T08:37:54;171.77;;;161.88;;
26820;SDS011;37186;51.394;5.454;2022-08-19T08:40:57;178.95;;;168.82;;
26820;SDS011;37186;51.394;5.454;2022-08-19T08:44:06;180.70;;;170.20;;
26820;SDS011;37186;51.394;5.454;2022-08-19T08:47:15;194.27;;;183.27;;
26820;SDS011;37186;51.394;5.454;2022-08-19T08:50:22;180.75;;;170.25;;
26820;SDS011;37186;51.394;5.454;2022-08-19T08:53:24;168.43;;;158.55;;
26820;SDS011;37186;51.394;5.454;2022-08-19T08:56:25;174.85;;;164.68;;
26820;SDS011;37186;51.394;5.454;2022-08-19T08:59:28;174.48;;;164.40;;
26820;SDS011;37186;51.394;5.454;2022-08-19T09:02:34;169.55;;;159.48;;
26820;SDS011;37186;51.394;5.454;2022-08-19T09:09:09;203.02;;;191.18;;
26820;SDS011;37186;51.394;5.454;2022-08-19T09:15:57;187.32;;;176.35;;
26820;SDS011;37186;51.394;5.454;2022-08-19T09:19:03;205.55;;;193.85;;
26820;SDS011;37186;51.394;5.454;2022-08-19T09:22:06;198.75;;;186.82;;
26820;SDS011;37186;51.394;5.454;2022-08-19T09:25:08;195.95;;;184.60;;
26820;SDS011;37186;51.394;5.454;2022-08-19T09:28:10;185.85;;;174.98;;
26820;SDS011;37186;51.394;5.454;2022-08-19T09:31:15;182.38;;;171.75;;
26820;SDS011;37186;51.394;5.454;2022-08-19T09:34:18;179.02;;;168.50;;
26820;SDS011;37186;51.394;5.454;2022-08-19T09:37:20;192.02;;;180.77;;
26820;SDS011;37186;51.394;5.454;2022-08-19T09:40:22;198.77;;;187.07;;
26820;SDS011;37186;51.394;5.454;2022-08-19T09:43:23;193.93;;;182.63;;
26820;SDS011;37186;51.394;5.454;2022-08-19T09:46:27;182.13;;;171.50;;
26820;SDS011;37186;51.394;5.454;2022-08-19T09:49:28;183.63;;;173.05;;
26820;SDS011;37186;51.394;5.454;2022-08-19T09:52:29;194.20;;;183.10;;
26820;SDS011;37186;51.394;5.454;2022-08-19T09:55:29;195.43;;;184.40;;
26820;SDS011;37186;51.394;5.454;2022-08-19T09:58:30;184.57;;;174.05;;
26820;SDS011;37186;51.394;5.454;2022-08-19T10:01:33;179.20;;;169.15;;
26820;SDS011;37186;51.394;5.454;2022-08-19T10:04:33;189.85;;;179.18;;
26820;SDS011;37186;51.394;5.454;2022-08-19T10:07:52;190.18;;;179.50;;
26820;SDS011;37186;51.394;5.454;2022-08-19T10:10:54;185.73;;;175.10;;
26820;SDS011;37186;51.394;5.454;2022-08-19T10:13:56;172.02;;;162.30;;
26820;SDS011;37186;51.394;5.454;2022-08-19T10:16:56;194.05;;;183.00;;
26820;SDS011;37186;51.394;5.454;2022-08-19T10:19:57;181.52;;;171.32;;
26820;SDS011;37186;51.394;5.454;2022-08-19T10:22:58;185.15;;;174.60;;
26820;SDS011;37186;51.394;5.454;2022-08-19T10:26:00;196.95;;;185.77;;
26820;SDS011;37186;51.394;5.454;2022-08-19T10:29:00;186.68;;;176.25;;
26820;SDS011;37186;51.394;5.454;2022-08-19T10:32:02;198.43;;;187.32;;
26820;SDS011;37186;51.394;5.454;2022-08-19T10:35:05;201.27;;;190.02;;
26820;SDS011;37186;51.394;5.454;2022-08-19T10:38:08;198.10;;;187.02;;
26820;SDS011;37186;51.394;5.454;2022-08-19T10:41:09;198.90;;;187.98;;
26820;SDS011;37186;51.394;5.454;2022-08-19T10:44:18;195.05;;;184.40;;
26820;SDS011;37186;51.394;5.454;2022-08-19T10:47:19;199.52;;;188.60;;
26820;SDS011;37186;51.394;5.454;2022-08-19T10:50:20;205.90;;;194.57;;
26820;SDS011;37186;51.394;5.454;2022-08-19T10:53:39;202.57;;;191.57;;
26820;SDS011;37186;51.394;5.454;2022-08-19T10:56:40;193.45;;;182.75;;
26820;SDS011;37186;51.394;5.454;2022-08-19T10:59:52;186.85;;;176.48;;
26820;SDS011;37186;51.394;5.454;2022-08-19T11:02:53;191.48;;;180.85;;
26820;SDS011;37186;51.394;5.454;2022-08-19T11:05:57;191.25;;;180.68;;
26820;SDS011;37186;51.394;5.454;2022-08-19T11:09:02;188.15;;;177.82;;
26820;SDS011;37186;51.394;5.454;2022-08-19T11:12:03;182.32;;;172.30;;
26820;SDS011;37186;51.394;5.454;2022-08-19T11:15:04;187.88;;;177.60;;
26820;SDS011;37186;51.394;5.454;2022-08-19T11:18:10;189.30;;;178.90;;
26820;SDS011;37186;51.394;5.454;2022-08-19T11:21:16;187.10;;;176.80;;
26820;SDS011;37186;51.394;5.454;2022-08-19T11:24:23;194.45;;;183.88;;
26820;SDS011;37186;51.394;5.454;2022-08-19T11:27:24;188.40;;;178.10;;
26820;SDS011;37186;51.394;5.454;2022-08-19T11:30:25;195.30;;;184.73;;
26820;SDS011;37186;51.394;5.454;2022-08-19T11:33:25;200.68;;;189.88;;
26820;SDS011;37186;51.394;5.454;2022-08-19T11:36:26;197.18;;;186.65;;
26820;SDS011;37186;51.394;5.454;2022-08-19T11:39:29;204.32;;;193.35;;
26820;SDS011;37186;51.394;5.454;2022-08-19T11:42:30;202.60;;;191.68;;
26820;SDS011;37186;51.394;5.454;2022-08-19T11:45:49;210.18;;;198.73;;
26820;SDS011;37186;51.394;5.454;2022-08-19T11:48:50;200.35;;;189.35;;
26820;SDS011;37186;51.394;5.454;2022-08-19T11:51:50;204.50;;;193.20;;
26820;SDS011;37186;51.394;5.454;2022-08-19T11:54:51;208.25;;;196.50;;
26820;SDS011;37186;51.394;5.454;2022-08-19T11:57:52;203.70;;;192.38;;
26820;SDS011;37186;51.394;5.454;2022-08-19T12:00:52;204.50;;;193.20;;
26820;SDS011;37186;51.394;5.454;2022-08-19T12:03:53;211.05;;;199.20;;
26820;SDS011;37186;51.394;5.454;2022-08-19T12:06:55;204.18;;;192.93;;
26820;SDS011;37186;51.394;5.454;2022-08-19T12:09:55;217.40;;;205.32;;
26820;SDS011;37186;51.394;5.454;2022-08-19T12:12:56;213.27;;;201.48;;
26820;SDS011;37186;51.394;5.454;2022-08-19T12:15:57;213.98;;;202.10;;
26820;SDS011;37186;51.394;5.454;2022-08-19T12:18:58;213.95;;;202.27;;
26820;SDS011;37186;51.394;5.454;2022-08-19T12:22:03;221.95;;;209.70;;
26820;SDS011;37186;51.394;5.454;2022-08-19T12:25:05;225.57;;;213.43;;
26820;SDS011;37186;51.394;5.454;2022-08-19T12:28:06;236.85;;;224.15;;
26820;SDS011;37186;51.394;5.454;2022-08-19T12:31:07;238.52;;;225.73;;
26820;SDS011;37186;51.394;5.454;2022-08-19T12:34:08;239.23;;;226.50;;
26820;SDS011;37186;51.394;5.454;2022-08-19T12:37:09;244.00;;;230.95;;
26820;SDS011;37186;51.394;5.454;2022-08-19T12:40:10;242.45;;;229.48;;
26820;SDS011;37186;51.394;5.454;2022-08-19T12:43:12;256.65;;;242.77;;
26820;SDS011;37186;51.394;5.454;2022-08-19T12:46:16;248.40;;;235.20;;
26820;SDS011;37186;51.394;5.454;2022-08-19T12:49:17;254.60;;;241.35;;
26820;SDS011;37186;51.394;5.454;2022-08-19T12:52:17;264.83;;;250.82;;
26820;SDS011;37186;51.394;5.454;2022-08-19T12:55:21;263.58;;;249.80;;
26820;SDS011;37186;51.394;5.454;2022-08-19T12:58:21;258.70;;;245.07;;
26820;SDS011;37186;51.394;5.454;2022-08-19T13:01:22;256.55;;;242.70;;
26820;SDS011;37186;51.394;5.454;2022-08-19T13:04:22;250.75;;;236.95;;
26820;SDS011;37186;51.394;5.454;2022-08-19T13:07:23;268.23;;;253.48;;
26820;SDS011;37186;51.394;5.454;2022-08-19T13:10:25;263.73;;;249.13;;
26820;SDS011;37186;51.394;5.454;2022-08-19T13:13:28;268.95;;;254.25;;
26820;SDS011;37186;51.394;5.454;2022-08-19T13:16:30;272.20;;;257.17;;
26820;SDS011;37186;51.394;5.454;2022-08-19T13:19:30;284.33;;;268.50;;
26820;SDS011;37186;51.394;5.454;2022-08-19T13:22:31;286.25;;;269.88;;
26820;SDS011;37186;51.394;5.454;2022-08-19T13:25:32;289.33;;;273.20;;
26820;SDS011;37186;51.394;5.454;2022-08-19T13:28:33;292.10;;;276.17;;
26820;SDS011;37186;51.394;5.454;2022-08-19T13:31:52;286.60;;;271.25;;
26820;SDS011;37186;51.394;5.454;2022-08-19T13:35:12;285.58;;;270.30;;
26820;SDS011;37186;51.394;5.454;2022-08-19T13:38:13;294.95;;;279.38;;
26820;SDS011;37186;51.394;5.454;2022-08-19T13:41:16;289.50;;;274.15;;
26820;SDS011;37186;51.394;5.454;2022-08-19T13:44:18;285.88;;;270.27;;
26820;SDS011;37186;51.394;5.454;2022-08-19T13:47:19;281.88;;;266.63;;
26820;SDS011;37186;51.394;5.454;2022-08-19T13:50:22;293.13;;;276.73;;
26820;SDS011;37186;51.394;5.454;2022-08-19T13:53:25;289.55;;;273.23;;
26820;SDS011;37186;51.394;5.454;2022-08-19T13:56:25;298.05;;;281.35;;
26820;SDS011;37186;51.394;5.454;2022-08-19T13:59:26;303.92;;;286.77;;
26820;SDS011;37186;51.394;5.454;2022-08-19T14:02:26;309.88;;;292.50;;
26820;SDS011;37186;51.394;5.454;2022-08-19T14:05:27;326.00;;;307.42;;
26820;SDS011;37186;51.394;5.454;2022-08-19T14:08:29;331.23;;;312.80;;
26820;SDS011;37186;51.394;5.454;2022-08-19T14:11:32;326.70;;;308.90;;
26820;SDS011;37186;51.394;5.454;2022-08-19T14:14:35;325.27;;;307.27;;
26820;SDS011;37186;51.394;5.454;2022-08-19T14:17:37;329.23;;;311.38;;
26820;SDS011;37186;51.394;5.454;2022-08-19T14:20:39;332.63;;;314.38;;
26820;SDS011;37186;51.394;5.454;2022-08-19T14:23:40;326.73;;;309.17;;
26820;SDS011;37186;51.394;5.454;2022-08-19T14:26:40;263.55;;;250.05;;
26820;SDS011;37186;51.394;5.454;2022-08-19T14:29:41;259.27;;;246.48;;
26820;SDS011;37186;51.394;5.454;2022-08-19T14:32:41;275.05;;;261.27;;
26820;SDS011;37186;51.394;5.454;2022-08-19T14:35:45;291.85;;;277.40;;
26820;SDS011;37186;51.394;5.454;2022-08-19T14:38:45;313.20;;;297.35;;
26820;SDS011;37186;51.394;5.454;2022-08-19T14:41:46;328.95;;;312.50;;
26820;SDS011;37186;51.394;5.454;2022-08-19T14:44:46;354.85;;;336.90;;
26820;SDS011;37186;51.394;5.454;2022-08-19T14:47:47;363.02;;;344.50;;
26820;SDS011;37186;51.394;5.454;2022-08-19T14:50:47;373.35;;;353.95;;
26820;SDS011;37186;51.394;5.454;2022-08-19T14:53:48;380.50;;;360.42;;
26820;SDS011;37186;51.394;5.454;2022-08-19T14:56:50;377.95;;;357.77;;
26820;SDS011;37186;51.394;5.454;2022-08-19T14:59:50;375.33;;;355.17;;
26820;SDS011;37186;51.394;5.454;2022-08-19T15:02:51;351.75;;;332.75;;
26820;SDS011;37186;51.394;5.454;2022-08-19T15:05:53;357.45;;;338.45;;
26820;SDS011;37186;51.394;5.454;2022-08-19T15:08:54;356.10;;;337.02;;
26820;SDS011;37186;51.394;5.454;2022-08-19T15:11:54;361.23;;;341.92;;
26820;SDS011;37186;51.394;5.454;2022-08-19T15:14:56;352.63;;;334.17;;
26820;SDS011;37186;51.394;5.454;2022-08-19T15:17:56;351.23;;;332.60;;
26820;SDS011;37186;51.394;5.454;2022-08-19T15:21:03;342.58;;;324.70;;
26820;SDS011;37186;51.394;5.454;2022-08-19T15:24:03;355.25;;;336.85;;
26820;SDS011;37186;51.394;5.454;2022-08-19T15:27:04;334.23;;;316.88;;
26820;SDS011;37186;51.394;5.454;2022-08-19T15:30:09;347.13;;;329.50;;
26820;SDS011;37186;51.394;5.454;2022-08-19T15:33:11;345.35;;;327.52;;
26820;SDS011;37186;51.394;5.454;2022-08-19T15:36:15;336.92;;;319.38;;
26820;SDS011;37186;51.394;5.454;2022-08-19T15:39:16;332.92;;;315.48;;
26820;SDS011;37186;51.394;5.454;2022-08-19T15:42:18;329.13;;;311.67;;
26820;SDS011;37186;51.394;5.454;2022-08-19T15:45:20;329.75;;;312.58;;
26820;SDS011;37186;51.394;5.454;2022-08-19T15:48:21;324.70;;;307.70;;
26820;SDS011;37186;51.394;5.454;2022-08-19T15:51:22;342.02;;;323.75;;
26820;SDS011;37186;51.394;5.454;2022-08-19T15:54:23;324.17;;;306.73;;
26820;SDS011;37186;51.394;5.454;2022-08-19T15:57:24;336.30;;;318.33;;
26820;SDS011;37186;51.394;5.454;2022-08-19T16:00:25;326.38;;;308.98;;
26820;SDS011;37186;51.394;5.454;2022-08-19T16:03:44;312.88;;;296.23;;
26820;SDS011;37186;51.394;5.454;2022-08-19T16:07:07;317.08;;;300.58;;
26820;SDS011;37186;51.394;5.454;2022-08-19T16:10:09;331.48;;;314.13;;
26820;SDS011;37186;51.394;5.454;2022-08-19T16:13:10;360.75;;;341.60;;
26820;SDS011;37186;51.394;5.454;2022-08-19T16:16:11;335.25;;;317.90;;
26820;SDS011;37186;51.394;5.454;2022-08-19T16:19:14;347.38;;;329.17;;
26820;SDS011;37186;51.394;5.454;2022-08-19T16:22:16;339.02;;;321.02;;
26820;SDS011;37186;51.394;5.454;2022-08-19T16:25:17;345.05;;;326.35;;
26820;SDS011;37186;51.394;5.454;2022-08-19T16:28:17;346.50;;;327.73;;
26820;SDS011;37186;51.394;5.454;2022-08-19T16:31:18;333.63;;;315.83;;
26820;SDS011;37186;51.394;5.454;2022-08-19T16:34:18;338.48;;;320.13;;
26820;SDS011;37186;51.394;5.454;2022-08-19T16:37:19;335.98;;;318.10;;
26820;SDS011;37186;51.394;5.454;2022-08-19T16:40:20;343.33;;;324.88;;
26820;SDS011;37186;51.394;5.454;2022-08-19T16:43:21;327.33;;;309.85;;
26820;SDS011;37186;51.394;5.454;2022-08-19T16:46:23;331.10;;;313.58;;
26820;SDS011;37186;51.394;5.454;2022-08-19T16:49:24;335.33;;;317.55;;
26820;SDS011;37186;51.394;5.454;2022-08-19T16:52:28;323.15;;;306.30;;
26820;SDS011;37186;51.394;5.454;2022-08-19T16:55:29;344.98;;;326.90;;
26820;SDS011;37186;51.394;5.454;2022-08-19T16:58:30;341.80;;;323.92;;
26820;SDS011;37186;51.394;5.454;2022-08-19T17:01:32;321.85;;;305.05;;
26820;SDS011;37186;51.394;5.454;2022-08-19T17:04:33;332.05;;;315.02;;
26820;SDS011;37186;51.394;5.454;2022-08-19T17:07:33;334.05;;;316.90;;
26820;SDS011;37186;51.394;5.454;2022-08-19T17:10:34;340.02;;;322.73;;
26820;SDS011;37186;51.394;5.454;2022-08-19T17:13:37;316.60;;;300.42;;
26820;SDS011;37186;51.394;5.454;2022-08-19T17:16:38;328.63;;;311.58;;
26820;SDS011;37186;51.394;5.454;2022-08-19T17:19:39;308.83;;;293.15;;
26820;SDS011;37186;51.394;5.454;2022-08-19T17:22:41;293.25;;;278.17;;